Time;durP1;ratioP1;P1;durP2;ratioP2;P2;SDS_P1;SDS_P2;PMS_P1;PMS_P2;Temp;Humidity;BMP_temperature;BMP_pressure;BME280_temperature;BME280_humidity;BME280_pressure;Samples;Min_cycle;Max_cycle;Signal;HPM_P1;HPM_P2
2022/11/08 00:02:05;;;;;;;10.25;1.73;;;12.00;99.90;;;;;;5086117;28;20052;-78
2022/11/08 00:04:33;;;;;;;5.88;1.98;;;12.00;99.90;;;;;;5086685;28;20033;-78
2022/11/08 00:15:15;;;;;;;7.68;1.65;;;12.10;99.90;;;;;;5085972;28;20063;-78
2022/11/08 00:17:42;;;;;;;8.95;2.00;;;12.10;99.90;;;;;;5102970;28;20049;-78
2022/11/08 00:20:09;;;;;;;6.45;2.38;;;12.10;99.90;;;;;;5085918;28;20040;-78
2022/11/08 00:22:36;;;;;;;7.85;1.73;;;12.10;99.90;;;;;;5086298;28;20087;-78
2022/11/08 00:25:03;;;;;;;5.30;1.80;;;12.10;99.90;;;;;;5102054;28;20146;-79
2022/11/08 00:27:29;;;;;;;7.53;1.48;;;12.10;99.90;;;;;;5102597;28;20594;-78
2022/11/08 00:29:56;;;;;;;12.43;1.67;;;12.20;99.90;;;;;;5069361;28;20033;-78
2022/11/08 00:32:25;;;;;;;6.55;1.50;;;12.20;99.90;;;;;;5102338;28;20047;-78
2022/11/08 00:34:51;;;;;;;6.90;1.40;;;12.20;99.90;;;;;;5069059;28;20485;-78
2022/11/08 00:37:20;;;;;;;7.70;1.80;;;12.20;99.90;;;;;;5085591;28;20519;-78
2022/11/08 00:39:47;;;;;;;9.18;1.60;;;12.20;99.90;;;;;;5068980;28;20032;-78
2022/11/08 00:42:14;;;;;;;8.38;1.75;;;12.20;99.90;;;;;;5069249;28;20075;-79
2022/11/08 00:44:40;;;;;;;5.82;1.60;;;12.20;99.90;;;;;;5102127;28;20045;-78
2022/11/08 00:47:07;;;;;;;5.07;1.42;;;12.20;99.90;;;;;;5085469;28;20033;-78
2022/11/08 00:49:34;;;;;;;7.20;1.92;;;12.20;99.90;;;;;;5085658;28;20409;-78
2022/11/08 00:52:01;;;;;;;5.75;1.60;;;12.20;99.90;;;;;;5101793;28;20037;-80
2022/11/08 00:54:27;;;;;;;3.75;1.42;;;12.20;99.90;;;;;;5068909;28;20572;-78
2022/11/08 00:56:54;;;;;;;6.53;1.42;;;12.20;99.90;;;;;;5119596;28;20086;-78
2022/11/08 00:59:21;;;;;;;10.00;1.67;;;12.20;99.90;;;;;;5085443;28;20090;-79
2022/11/08 01:01:48;;;;;;;5.03;1.33;;;12.20;99.90;;;;;;5119288;28;20045;-78
2022/11/08 01:04:17;;;;;;;11.20;2.10;;;12.20;99.90;;;;;;5101946;28;20413;-79
2022/11/08 01:06:44;;;;;;;6.50;1.55;;;12.20;99.90;;;;;;5101949;28;20114;-78
2022/11/08 01:09:11;;;;;;;3.58;1.50;;;12.20;99.90;;;;;;5101841;28;20120;-79
2022/11/08 01:11:38;;;;;;;2.75;1.27;;;12.20;99.90;;;;;;5102435;28;20396;-78
2022/11/08 01:14:05;;;;;;;4.70;1.70;;;12.20;99.90;;;;;;5068857;28;20098;-79
2022/11/08 01:16:33;;;;;;;8.82;1.95;;;12.10;99.90;;;;;;5102147;28;20045;-78
2022/11/08 01:19:00;;;;;;;8.15;1.90;;;12.20;99.90;;;;;;5102036;28;20044;-78
2022/11/08 01:21:28;;;;;;;8.35;1.60;;;12.20;99.90;;;;;;5068815;28;20044;-78
2022/11/08 01:23:55;;;;;;;8.82;1.42;;;12.20;99.90;;;;;;5103118;28;20071;-78
2022/11/08 01:26:25;;;;;;;6.97;1.50;;;12.20;99.90;;;;;;5122659;28;20049;-78
2022/11/08 01:28:52;;;;;;;6.45;1.50;;;12.20;99.90;;;;;;5072596;28;20069;-78
2022/11/08 01:31:28;;;;;;;5.75;1.33;;;12.10;99.90;;;;;;5105488;28;20045;-78
2022/11/08 01:33:56;;;;;;;7.03;1.40;;;12.10;99.90;;;;;;5072717;28;20037;-78
2022/11/08 01:36:24;;;;;;;6.93;1.67;;;12.10;99.90;;;;;;5072188;28;20045;-79
2022/11/08 01:38:52;;;;;;;5.38;1.60;;;12.00;99.90;;;;;;5105781;28;20045;-78
2022/11/08 01:41:20;;;;;;;7.65;1.70;;;12.00;99.90;;;;;;5105492;28;20040;-79
2022/11/08 01:43:58;;;;;;;5.38;1.35;;;12.00;99.90;;;;;;5089138;28;20072;-78
2022/11/08 01:46:35;;;;;;;6.50;1.42;;;11.90;99.90;;;;;;5072157;28;20036;-78
2022/11/08 01:49:39;;;;;;;4.65;1.30;;;11.90;99.90;;;;;;5122517;28;20549;-78
2022/11/08 01:52:08;;;;;;;7.72;1.40;;;11.90;99.90;;;;;;5072313;28;20044;-78
2022/11/08 01:55:00;;;;;;;5.55;1.70;;;11.80;99.90;;;;;;5122642;28;20044;-79
2022/11/08 01:57:32;;;;;;;3.85;1.23;;;11.80;99.90;;;;;;5122130;28;20072;-78
2022/11/08 02:00:04;;;;;;;6.10;1.75;;;11.80;99.90;;;;;;5105447;28;20037;-78
2022/11/08 02:02:32;;;;;;;6.95;1.50;;;11.80;99.90;;;;;;5072159;28;20041;-78
2022/11/08 02:05:00;;;;;;;8.68;1.70;;;11.80;99.90;;;;;;5122358;28;20033;-79
2022/11/08 02:07:29;;;;;;;4.60;1.45;;;11.90;99.90;;;;;;5121868;28;20041;-78
2022/11/08 02:09:56;;;;;;;12.68;1.58;;;11.70;99.90;;;;;;5071760;28;20481;-78
2022/11/08 02:12:25;;;;;;;6.00;1.40;;;11.70;99.90;;;;;;5104603;28;20079;-78
2022/11/08 02:14:52;;;;;;;4.35;1.42;;;11.70;99.90;;;;;;5122166;28;20080;-78
2022/11/08 02:17:18;;;;;;;10.52;2.33;;;11.70;99.90;;;;;;5088324;28;20069;-78
2022/11/08 02:19:48;;;;;;;9.90;1.50;;;11.70;99.90;;;;;;5088523;28;20103;-78
2022/11/08 02:22:42;;;;;;;5.72;1.40;;;11.80;99.90;;;;;;5121837;28;20040;-79
2022/11/08 02:25:09;;;;;;;9.90;2.00;;;11.70;99.90;;;;;;5121762;28;20049;-78
2022/11/08 02:27:36;;;;;;;3.90;1.20;;;11.70;99.90;;;;;;5071389;28;20404;-78
2022/11/08 02:30:03;;;;;;;3.45;1.80;;;11.80;99.90;;;;;;5088818;28;20087;-78
2022/11/08 02:32:40;;;;;;;5.03;1.45;;;11.70;99.90;;;;;;5104731;28;20480;-78
2022/11/08 02:35:17;;;;;;;9.48;1.80;;;11.60;99.90;;;;;;5071271;28;20555;-78
2022/11/08 02:37:44;;;;;;;6.38;1.70;;;11.60;99.90;;;;;;5121472;28;20041;-78
2022/11/08 02:40:11;;;;;;;4.70;1.58;;;11.60;99.90;;;;;;5087909;28;20044;-78
2022/11/08 02:42:38;;;;;;;6.82;1.65;;;11.50;99.90;;;;;;5087880;28;20040;-78
2022/11/08 02:45:06;;;;;;;5.72;1.60;;;11.50;99.90;;;;;;5087707;28;20051;-78
2022/11/08 02:47:33;;;;;;;5.22;1.40;;;11.40;99.90;;;;;;5087773;28;20048;-78
2022/11/08 02:49:59;;;;;;;8.95;1.55;;;11.40;99.90;;;;;;5087844;28;20036;-78
2022/11/08 02:52:26;;;;;;;4.68;1.25;;;11.40;99.90;;;;;;5070778;28;20037;-78
2022/11/08 02:54:53;;;;;;;9.45;1.75;;;11.40;99.90;;;;;;5086005;28;20044;-78
2022/11/08 02:57:19;;;;;;;4.28;1.35;;;11.30;99.90;;;;;;5074373;28;20052;-79
2022/11/08 02:59:48;;;;;;;12.68;1.65;;;11.30;99.90;;;;;;5057917;28;20044;-78
2022/11/08 03:02:14;;;;;;;4.78;1.60;;;11.30;99.90;;;;;;5065490;28;20045;-78
2022/11/08 03:04:41;;;;;;;5.55;1.48;;;11.20;99.90;;;;;;5087007;28;20047;-78
2022/11/08 03:07:08;;;;;;;5.20;1.50;;;11.20;99.90;;;;;;5087519;28;20094;-78
2022/11/08 03:09:34;;;;;;;6.93;1.80;;;11.20;99.90;;;;;;5087031;28;20502;-78
2022/11/08 03:12:01;;;;;;;4.20;1.30;;;11.20;99.90;;;;;;5070794;28;20036;-78
2022/11/08 03:14:28;;;;;;;10.88;1.77;;;11.20;99.90;;;;;;5087022;28;20032;-79
2022/11/08 03:16:54;;;;;;;8.93;1.50;;;11.10;99.90;;;;;;5087152;28;20500;-78
2022/11/08 03:19:21;;;;;;;5.00;1.15;;;11.20;99.90;;;;;;5103865;28;20036;-80
2022/11/08 03:21:48;;;;;;;6.15;1.88;;;11.20;99.90;;;;;;5087154;28;20037;-78
2022/11/08 03:24:14;;;;;;;4.15;1.35;;;11.20;99.90;;;;;;5103388;28;20106;-78
2022/11/08 03:26:41;;;;;;;6.88;1.80;;;11.10;99.90;;;;;;5103349;28;20049;-78
2022/11/08 03:29:08;;;;;;;11.70;1.95;;;11.10;99.90;;;;;;5070509;28;20094;-78
2022/11/08 03:31:34;;;;;;;7.45;1.60;;;11.10;99.90;;;;;;5087052;28;20083;-79
2022/11/08 03:34:01;;;;;;;9.25;1.65;;;11.10;99.90;;;;;;5087049;28;20040;-78
2022/11/08 03:36:28;;;;;;;6.45;1.63;;;11.10;99.90;;;;;;5069871;28;20036;-78
2022/11/08 03:38:54;;;;;;;8.05;1.85;;;11.00;99.90;;;;;;5120283;28;20519;-78
2022/11/08 03:41:21;;;;;;;7.68;1.73;;;11.40;99.90;;;;;;5069915;28;20509;-78
2022/11/08 03:43:48;;;;;;;7.97;1.65;;;11.00;99.90;;;;;;5069719;28;20041;-78
2022/11/08 03:46:14;;;;;;;4.45;1.30;;;10.90;99.90;;;;;;5086437;28;20063;-78
2022/11/08 03:48:41;;;;;;;11.93;1.45;;;11.00;99.90;;;;;;5069552;28;20037;-78
2022/11/08 03:51:08;;;;;;;4.82;1.30;;;11.00;99.90;;;;;;5103427;28;20394;-78
2022/11/08 03:53:35;;;;;;;8.88;1.65;;;10.90;99.90;;;;;;5069643;28;20076;-78
2022/11/08 03:56:01;;;;;;;3.60;1.50;;;10.90;99.90;;;;;;5086580;28;20037;-79
2022/11/08 03:58:28;;;;;;;5.88;1.40;;;10.90;99.90;;;;;;5086245;28;20041;-78
2022/11/08 04:00:57;;;;;;;6.68;1.55;;;10.90;99.90;;;;;;5069714;28;20102;-78
2022/11/08 04:03:24;;;;;;;3.78;1.33;;;10.80;99.90;;;;;;5086236;28;20405;-78
2022/11/08 04:05:50;;;;;;;7.30;1.52;;;10.80;99.90;;;;;;5085684;28;20144;-78
2022/11/08 04:08:17;;;;;;;6.72;1.70;;;10.80;99.90;;;;;;5103006;28;20124;-78
2022/11/08 04:10:43;;;;;;;6.25;1.88;;;11.10;99.90;;;;;;5069664;28;20098;-78
2022/11/08 04:15:56;;;;;;;8.05;1.77;;;10.70;99.90;;;;;;5100802;28;20064;-78
2022/11/08 04:21:18;;;;;;;6.00;1.55;;;10.60;99.90;;;;;;5086396;28;20041;-78
2022/11/08 04:23:50;;;;;;;4.78;1.40;;;10.60;99.90;;;;;;5069057;28;20666;-78
2022/11/08 04:26:17;;;;;;;4.95;1.55;;;10.60;99.90;;;;;;5102720;28;20041;-78
2022/11/08 04:28:44;;;;;;;5.88;1.45;;;10.60;99.90;;;;;;5085783;28;20471;-78
2022/11/08 04:31:17;;;;;;;4.65;1.42;;;10.60;99.90;;;;;;5085707;28;20120;-78
2022/11/08 04:33:45;;;;;;;6.38;1.52;;;10.60;99.90;;;;;;5069293;28;20118;-78
2022/11/08 04:36:14;;;;;;;8.45;1.48;;;10.50;99.90;;;;;;5069326;28;20036;-78
2022/11/08 04:38:41;;;;;;;5.10;1.40;;;10.50;99.90;;;;;;5119119;28;20056;-78
2022/11/08 04:41:14;;;;;;;6.88;1.42;;;10.50;99.90;;;;;;5055526;28;20501;-78
2022/11/08 04:43:41;;;;;;;6.38;1.55;;;10.50;99.90;;;;;;5052535;28;20151;-78
2022/11/08 04:46:10;;;;;;;3.35;1.25;;;10.40;99.90;;;;;;5069028;28;20053;-78
2022/11/08 04:48:37;;;;;;;7.30;1.70;;;10.40;99.90;;;;;;5085688;28;20044;-79
2022/11/08 04:51:12;;;;;;;9.15;2.03;;;10.40;99.90;;;;;;5069129;28;20041;-78
2022/11/08 04:53:39;;;;;;;9.65;1.80;;;10.40;99.90;;;;;;5068847;28;20037;-78
2022/11/08 04:56:15;;;;;;;4.70;1.52;;;10.40;99.90;;;;;;5052622;28;20040;-78
2022/11/08 04:58:44;;;;;;;12.05;1.60;;;10.30;99.90;;;;;;5068726;28;20083;-78
2022/11/08 05:01:13;;;;;;;8.07;1.80;;;10.30;99.90;;;;;;5102294;28;20045;-78
2022/11/08 05:03:40;;;;;;;6.35;1.77;;;10.30;99.90;;;;;;5101832;28;20045;-78
2022/11/08 05:06:11;;;;;;;7.38;1.80;;;10.30;99.90;;;;;;5102185;28;20507;-78
2022/11/08 05:08:38;;;;;;;5.30;1.70;;;10.30;99.90;;;;;;5119259;28;20033;-78
2022/11/08 05:11:06;;;;;;;8.57;1.90;;;10.30;99.90;;;;;;5102674;28;20535;-78
2022/11/08 05:13:33;;;;;;;6.40;1.65;;;10.40;99.90;;;;;;5068964;28;20115;-78
2022/11/08 05:16:02;;;;;;;8.88;1.77;;;10.50;99.90;;;;;;5102107;28;20052;-78
2022/11/08 05:18:30;;;;;;;4.80;1.70;;;10.40;99.90;;;;;;5068964;28;20037;-78
2022/11/08 05:23:45;;;;;;;9.75;1.98;;;10.50;99.90;;;;;;5099199;28;20092;-78
2022/11/08 05:26:12;;;;;;;4.63;1.30;;;10.50;99.90;;;;;;5118888;28;20588;-78
2022/11/08 05:28:39;;;;;;;7.72;1.60;;;10.50;99.90;;;;;;5101727;28;20493;-79
2022/11/08 05:31:07;;;;;;;5.15;1.60;;;10.50;99.90;;;;;;5068803;28;20048;-78
2022/11/08 05:33:34;;;;;;;10.98;2.08;;;10.50;99.90;;;;;;5069097;28;20108;-78
2022/11/08 05:36:05;;;;;;;5.70;1.65;;;10.40;99.90;;;;;;5085366;28;20052;-78
2022/11/08 05:38:32;;;;;;;7.38;1.85;;;10.40;99.90;;;;;;5085151;28;20041;-78
2022/11/08 05:41:09;;;;;;;4.15;1.58;;;10.40;99.90;;;;;;5085091;28;20041;-78
2022/11/08 05:43:37;;;;;;;8.30;1.48;;;10.40;99.90;;;;;;5119060;28;20045;-79
2022/11/08 05:46:04;;;;;;;11.85;2.00;;;10.30;99.90;;;;;;5101164;28;20401;-78
2022/11/08 05:48:31;;;;;;;6.97;1.80;;;10.30;99.90;;;;;;5085058;28;20041;-78
2022/11/08 05:50:57;;;;;;;7.38;1.63;;;10.40;99.90;;;;;;5101659;28;20519;-78
2022/11/08 05:53:24;;;;;;;7.35;1.60;;;10.40;99.90;;;;;;5084935;28;20133;-79
2022/11/08 05:55:59;;;;;;;6.28;1.65;;;10.30;99.90;;;;;;5101389;28;20045;-78
2022/11/08 05:58:27;;;;;;;8.77;2.15;;;10.30;99.90;;;;;;5118993;28;20059;-78
2022/11/08 06:01:03;;;;;;;6.53;1.98;;;10.30;99.90;;;;;;5068354;28;20033;-78
2022/11/08 06:03:30;;;;;;;4.78;1.75;;;10.30;99.90;;;;;;5068671;28;20077;-78
2022/11/08 06:06:06;;;;;;;12.00;2.03;;;10.30;99.90;;;;;;5118053;28;20049;-78
2022/11/08 06:08:33;;;;;;;4.22;1.70;;;10.20;99.90;;;;;;5084925;28;20041;-78
2022/11/08 06:11:04;;;;;;;6.10;1.77;;;10.20;99.90;;;;;;5102276;28;20033;-78
2022/11/08 06:13:31;;;;;;;8.02;2.00;;;10.20;99.90;;;;;;5088396;28;20091;-78
2022/11/08 06:16:03;;;;;;;5.75;1.80;;;10.20;99.90;;;;;;5088380;28;20055;-78
2022/11/08 06:18:31;;;;;;;4.15;1.77;;;10.30;99.90;;;;;;5121921;28;20045;-78
2022/11/08 06:20:59;;;;;;;7.13;2.00;;;10.20;99.90;;;;;;5071925;28;20045;-78
2022/11/08 06:23:26;;;;;;;7.22;1.80;;;10.20;99.90;;;;;;5071612;28;20587;-78
2022/11/08 06:25:53;;;;;;;4.10;1.65;;;10.20;99.90;;;;;;5121588;28;20049;-78
2022/11/08 06:28:21;;;;;;;5.10;1.42;;;10.20;99.90;;;;;;5071168;28;20106;-78
2022/11/08 06:30:47;;;;;;;9.63;2.05;;;10.20;99.90;;;;;;5104346;28;20041;-79
2022/11/08 06:33:14;;;;;;;5.47;1.80;;;10.20;99.90;;;;;;5071274;28;20143;-78
2022/11/08 06:35:41;;;;;;;5.20;2.13;;;10.10;99.90;;;;;;5071023;28;20049;-78
2022/11/08 06:38:08;;;;;;;6.82;1.95;;;10.20;99.90;;;;;;5087410;28;20098;-78
2022/11/08 06:40:37;;;;;;;8.43;1.77;;;10.20;99.90;;;;;;5087431;28;20580;-78
2022/11/08 06:43:04;;;;;;;6.25;2.20;;;10.10;99.90;;;;;;5071023;28;20128;-79
2022/11/08 06:45:31;;;;;;;6.65;1.92;;;10.10;99.90;;;;;;5104317;28;20628;-79
2022/11/08 06:47:59;;;;;;;6.63;2.15;;;10.10;99.90;;;;;;5120813;28;20120;-78
2022/11/08 06:50:27;;;;;;;10.23;1.80;;;10.10;99.90;;;;;;5070198;28;20052;-78
2022/11/08 06:53:05;;;;;;;6.25;1.83;;;10.10;99.90;;;;;;5087711;28;20036;-79
2022/11/08 06:55:33;;;;;;;9.23;1.60;;;10.10;99.90;;;;;;5121253;28;20068;-78
2022/11/08 06:58:00;;;;;;;4.80;1.40;;;10.10;99.90;;;;;;5070915;28;20041;-78
2022/11/08 07:00:27;;;;;;;4.30;1.92;;;10.10;99.90;;;;;;5087481;28;20175;-78
2022/11/08 07:02:57;;;;;;;7.13;1.90;;;10.10;99.90;;;;;;5087054;28;20533;-78
2022/11/08 07:05:25;;;;;;;9.88;1.88;;;10.10;99.90;;;;;;5070785;28;20097;-78
2022/11/08 07:07:52;;;;;;;6.50;1.80;;;10.10;99.90;;;;;;5120994;28;20048;-78
2022/11/08 07:10:20;;;;;;;4.95;1.65;;;10.20;99.90;;;;;;5087172;28;20041;-78
2022/11/08 07:12:49;;;;;;;5.95;1.90;;;10.20;99.90;;;;;;5104117;28;20417;-78
2022/11/08 07:15:16;;;;;;;3.80;1.73;;;10.20;99.90;;;;;;5080021;28;20040;-78
2022/11/08 07:17:43;;;;;;;9.32;2.15;;;10.30;99.90;;;;;;5090860;28;20037;-78
2022/11/08 07:20:10;;;;;;;4.18;1.40;;;10.20;99.90;;;;;;5054476;28;20041;-78
2022/11/08 07:22:36;;;;;;;4.35;1.60;;;10.30;99.90;;;;;;5101349;28;20535;-78
2022/11/08 07:25:04;;;;;;;3.60;1.80;;;10.30;99.90;;;;;;5073581;28;20084;-78
2022/11/08 07:27:30;;;;;;;6.80;1.65;;;10.30;99.90;;;;;;5065522;28;20072;-78
2022/11/08 07:29:57;;;;;;;6.60;2.20;;;10.30;99.90;;;;;;5058468;28;20073;-78
2022/11/08 07:32:24;;;;;;;5.75;1.90;;;10.30;99.90;;;;;;5096159;28;20033;-78
2022/11/08 07:34:51;;;;;;;7.88;1.83;;;10.40;99.90;;;;;;5093346;28;20123;-78
2022/11/08 07:37:18;;;;;;;7.00;1.80;;;10.40;99.90;;;;;;5069858;28;20128;-78
2022/11/08 07:39:44;;;;;;;2.83;1.30;;;10.40;99.90;;;;;;5070017;28;20114;-78
2022/11/08 07:42:11;;;;;;;2.97;1.20;;;10.50;99.90;;;;;;5083444;28;20119;-78
2022/11/08 07:44:38;;;;;;;4.93;1.35;;;10.50;99.90;;;;;;5077832;28;20037;-78
2022/11/08 07:47:05;;;;;;;3.25;1.30;;;10.60;99.90;;;;;;5081794;28;20037;-78
2022/11/08 07:49:31;;;;;;;2.10;1.00;;;10.60;99.90;;;;;;5054973;28;20147;-78
2022/11/08 07:51:58;;;;;;;3.20;1.50;;;10.60;99.90;;;;;;5069678;28;20029;-79
2022/11/08 07:54:24;;;;;;;3.10;1.30;;;10.70;99.90;;;;;;5071032;28;20033;-78
2022/11/08 07:56:51;;;;;;;8.00;1.95;;;10.70;99.90;;;;;;5061622;28;20047;-78
2022/11/08 07:59:18;;;;;;;7.03;1.27;;;10.80;99.90;;;;;;5059774;28;20041;-78
2022/11/08 08:01:44;;;;;;;2.63;1.00;;;10.90;99.90;;;;;;5086261;28;20041;-78
2022/11/08 08:04:11;;;;;;;5.50;1.30;;;10.90;99.90;;;;;;5102469;28;20036;-78
2022/11/08 08:06:38;;;;;;;3.63;1.27;;;10.90;99.90;;;;;;5085981;28;20033;-78
2022/11/08 08:09:05;;;;;;;2.85;1.30;;;11.00;99.90;;;;;;5085207;28;20081;-78
2022/11/08 08:11:31;;;;;;;3.80;1.42;;;11.00;99.90;;;;;;5085919;28;20440;-78
2022/11/08 08:13:58;;;;;;;3.45;1.20;;;11.10;99.90;;;;;;5085859;28;20048;-78
2022/11/08 08:16:24;;;;;;;7.07;1.38;;;11.10;99.90;;;;;;5088117;28;20043;-78
2022/11/08 08:18:51;;;;;;;4.65;1.20;;;11.20;99.90;;;;;;5055366;28;20046;-79
2022/11/08 08:21:18;;;;;;;3.80;1.30;;;11.20;99.90;;;;;;5067686;28;20043;-79
2022/11/08 08:23:44;;;;;;;6.07;0.98;;;11.30;99.90;;;;;;5066367;28;20134;-79
2022/11/08 08:26:11;;;;;;;5.38;1.30;;;11.30;99.90;;;;;;5047988;28;20052;-79
2022/11/08 08:28:38;;;;;;;4.03;1.20;;;11.40;99.90;;;;;;5068228;28;20120;-78
2022/11/08 08:31:05;;;;;;;4.45;1.05;;;11.50;99.90;;;;;;5101137;28;20044;-79
2022/11/08 08:33:32;;;;;;;2.08;1.10;;;11.60;99.90;;;;;;5070721;28;20041;-78
2022/11/08 08:36:02;;;;;;;5.07;1.67;;;11.60;99.90;;;;;;5035766;28;20041;-78
2022/11/08 08:38:30;;;;;;;2.90;1.00;;;11.70;99.90;;;;;;5099678;28;20044;-78
2022/11/08 08:40:57;;;;;;;3.03;1.02;;;11.80;99.90;;;;;;5054907;28;20107;-78
2022/11/08 08:43:26;;;;;;;5.68;1.13;;;11.80;99.90;;;;;;5038006;28;20124;-78
2022/11/08 08:45:58;;;;;;;2.60;1.00;;;11.90;99.90;;;;;;5081790;28;20045;-79
2022/11/08 08:48:25;;;;;;;2.17;0.90;;;11.90;99.90;;;;;;5093317;28;20477;-77
2022/11/08 08:50:51;;;;;;;3.75;1.20;;;12.00;99.90;;;;;;5053595;28;20033;-79
2022/11/08 08:53:18;;;;;;;5.28;1.38;;;12.00;99.90;;;;;;5068015;28;20114;-79
2022/11/08 08:55:46;;;;;;;2.35;1.10;;;12.10;99.90;;;;;;5055637;28;20052;-79
2022/11/08 08:58:13;;;;;;;3.97;1.00;;;12.20;99.90;;;;;;5076778;28;20769;-79
2022/11/08 09:00:40;;;;;;;3.33;0.93;;;12.30;99.90;;;;;;5120848;28;20040;-78
2022/11/08 09:03:08;;;;;;;3.40;1.30;;;12.30;99.90;;;;;;5030286;28;20126;-78
2022/11/08 09:05:36;;;;;;;3.83;1.20;;;12.30;99.90;;;;;;5068521;28;20086;-78
2022/11/08 09:08:03;;;;;;;1.80;0.98;;;12.40;99.90;;;;;;5084766;28;20595;-79
2022/11/08 09:10:29;;;;;;;5.53;1.20;;;12.40;99.90;;;;;;5051836;28;20037;-78
2022/11/08 09:12:56;;;;;;;2.30;0.90;;;12.40;99.90;;;;;;5052372;28;20049;-79
2022/11/08 09:15:23;;;;;;;5.38;1.20;;;12.50;99.90;;;;;;5051789;28;20106;-78
2022/11/08 09:17:53;;;;;;;3.05;1.00;;;12.40;99.90;;;;;;5071206;28;20045;-78
2022/11/08 09:20:19;;;;;;;10.00;1.60;;;12.50;99.90;;;;;;5052141;28;20045;-78
2022/11/08 09:22:46;;;;;;;3.72;1.10;;;12.50;99.90;;;;;;5051042;28;20386;-78
2022/11/08 09:25:13;;;;;;;3.90;1.00;;;12.50;99.90;;;;;;5084391;28;20053;-79
2022/11/08 09:27:42;;;;;;;2.22;1.02;;;12.50;99.90;;;;;;5035420;28;20119;-79
2022/11/08 09:30:09;;;;;;;3.63;1.10;;;12.50;99.90;;;;;;5067551;28;20040;-79
2022/11/08 09:32:36;;;;;;;4.00;1.40;;;12.50;99.90;;;;;;5082978;28;20036;-79
2022/11/08 09:35:03;;;;;;;3.15;1.20;;;12.50;99.90;;;;;;5058922;28;20049;-78
2022/11/08 09:37:30;;;;;;;3.03;1.30;;;12.60;99.90;;;;;;5075200;28;20043;-79
2022/11/08 09:39:56;;;;;;;5.57;1.08;;;12.60;99.90;;;;;;5052446;28;20044;-78
2022/11/08 09:43:04;;;;;;;4.00;1.30;;;12.70;99.90;;;;;;5051437;28;20045;-79
2022/11/08 09:45:44;;;;;;;4.53;1.50;;;12.70;99.90;;;;;;5089046;28;20497;-77
2022/11/08 09:48:33;;;;;;;5.20;1.30;;;12.70;99.90;;;;;;5082666;28;20037;-79
2022/11/08 09:51:08;;;;;;;7.40;1.35;;;12.80;99.90;;;;;;5097640;28;20405;-78
2022/11/08 09:53:38;;;;;;;5.20;1.10;;;12.80;99.90;;;;;;5091599;28;20032;-77
2022/11/08 09:56:28;;;;;;;4.22;1.27;;;12.90;99.90;;;;;;5096471;28;20498;-78
2022/11/08 09:59:03;;;;;;;2.85;1.20;;;12.90;99.90;;;;;;5059828;28;20124;-78
2022/11/08 10:01:34;;;;;;;2.65;0.90;;;12.90;99.90;;;;;;5084023;28;20548;-80
2022/11/08 10:04:06;;;;;;;3.40;1.30;;;13.00;99.90;;;;;;5080649;28;20036;-79
2022/11/08 10:07:02;;;;;;;2.95;1.10;;;13.10;99.90;;;;;;5088230;28;20041;-79
2022/11/08 10:09:59;;;;;;;4.55;1.30;;;13.10;99.90;;;;;;5088061;28;20037;-79
2022/11/08 10:12:48;;;;;;;3.70;1.17;;;13.10;99.90;;;;;;5071680;28;20048;-79
2022/11/08 10:15:47;;;;;;;4.43;1.40;;;13.10;99.90;;;;;;5071090;28;20451;-79
2022/11/08 10:18:41;;;;;;;4.93;1.02;;;13.00;99.90;;;;;;5080987;28;20127;-78
2022/11/08 10:21:17;;;;;;;4.13;1.30;;;13.00;99.90;;;;;;5071264;28;20113;-80
2022/11/08 10:24:08;;;;;;;3.28;1.33;;;13.00;99.90;;;;;;5071251;28;20057;-79
2022/11/08 10:26:41;;;;;;;5.78;1.40;;;13.10;99.90;;;;;;5071079;28;20045;-78
2022/11/08 10:29:22;;;;;;;3.65;1.00;;;13.10;99.90;;;;;;5089452;28;20048;-77
2022/11/08 10:31:58;;;;;;;3.03;1.13;;;13.20;99.90;;;;;;5057042;28;20041;-78
2022/11/08 10:34:31;;;;;;;4.63;1.17;;;13.20;99.90;;;;;;5077373;28;20382;-77
2022/11/08 10:37:02;;;;;;;5.57;1.10;;;13.30;99.90;;;;;;5087148;28;20437;-78
2022/11/08 10:39:38;;;;;;;2.15;1.05;;;13.30;99.90;;;;;;5086465;28;20120;-79
2022/11/08 10:42:50;;;;;;;5.03;1.20;;;13.30;99.90;;;;;;5072782;28;20120;-79
2022/11/08 10:45:17;;;;;;;3.70;1.48;;;13.40;99.90;;;;;;5066204;28;20049;-79
2022/11/08 10:47:45;;;;;;;3.22;1.02;;;13.50;99.90;;;;;;5087234;28;20060;-79
2022/11/08 10:50:25;;;;;;;5.43;1.00;;;13.50;99.90;;;;;;5121033;28;20047;-79
2022/11/08 10:52:59;;;;;;;4.63;1.02;;;13.50;99.90;;;;;;5121181;28;20047;-79
2022/11/08 10:55:29;;;;;;;2.35;1.10;;;13.70;99.90;;;;;;5105297;28;20044;-78
2022/11/08 10:57:56;;;;;;;3.17;0.90;;;13.60;99.90;;;;;;5096424;28;20099;-78
2022/11/08 11:00:29;;;;;;;4.03;1.17;;;13.70;99.90;;;;;;5069823;28;20110;-79
2022/11/08 11:03:15;;;;;;;7.00;1.20;;;13.60;99.90;;;;;;5071092;28;20132;-78
2022/11/08 11:05:53;;;;;;;3.47;1.30;;;13.70;99.90;;;;;;5070526;28;20048;-80
2022/11/08 11:08:21;;;;;;;3.40;1.17;;;13.70;99.90;;;;;;5070716;28;20048;-79
2022/11/08 11:10:49;;;;;;;3.30;1.30;;;13.70;99.90;;;;;;5070921;28;20044;-79
2022/11/08 11:13:26;;;;;;;3.10;1.23;;;13.70;99.90;;;;;;5053880;28;20379;-80
2022/11/08 11:15:56;;;;;;;4.50;1.05;;;13.70;99.90;;;;;;5075271;28;20036;-77
2022/11/08 11:18:28;;;;;;;3.08;1.10;;;13.70;99.90;;;;;;5070393;28;20053;-77
2022/11/08 11:21:16;;;;;;;2.55;1.08;;;13.70;99.90;;;;;;5103523;28;20505;-77
2022/11/08 11:23:50;;;;;;;4.57;1.05;;;13.70;99.90;;;;;;5069959;28;20099;-78
2022/11/08 11:26:31;;;;;;;4.32;1.05;;;13.60;99.90;;;;;;5071346;28;20060;-78
2022/11/08 11:29:04;;;;;;;4.18;1.30;;;13.60;99.90;;;;;;5086790;28;20041;-77
2022/11/08 11:31:33;;;;;;;3.35;1.10;;;13.60;99.90;;;;;;5097668;28;20460;-77
2022/11/08 11:34:17;;;;;;;3.05;1.10;;;13.50;99.90;;;;;;5098794;28;20468;-77
2022/11/08 11:36:49;;;;;;;2.97;1.25;;;13.50;99.90;;;;;;5076965;28;20068;-77
2022/11/08 11:39:26;;;;;;;6.13;1.30;;;13.50;99.90;;;;;;5084841;28;20052;-77
2022/11/08 11:42:10;;;;;;;4.13;1.30;;;13.50;99.90;;;;;;5079641;28;20124;-77
2022/11/08 11:45:05;;;;;;;2.53;1.02;;;13.50;99.90;;;;;;5114802;28;20040;-77
2022/11/08 11:47:31;;;;;;;3.58;0.98;;;13.60;99.90;;;;;;5075461;28;20125;-77
2022/11/08 11:50:11;;;;;;;3.47;1.40;;;13.70;99.90;;;;;;5101369;28;20495;-77
2022/11/08 11:52:39;;;;;;;3.80;1.33;;;13.70;99.90;;;;;;5092847;28;20169;-77
2022/11/08 11:55:06;;;;;;;4.50;1.45;;;13.70;99.90;;;;;;5077729;28;20048;-77
2022/11/08 11:58:05;;;;;;;5.85;1.30;;;13.80;99.90;;;;;;5062664;28;20408;-78
2022/11/08 12:00:36;;;;;;;5.93;1.38;;;13.90;99.90;;;;;;5077622;28;20048;-77
2022/11/08 12:03:27;;;;;;;3.33;1.23;;;13.90;99.90;;;;;;5088426;28;20075;-77
2022/11/08 12:06:23;;;;;;;5.50;1.20;;;14.00;99.90;;;;;;5090378;28;20497;-77
2022/11/08 12:09:18;;;;;;;5.63;1.17;;;14.00;99.90;;;;;;5064369;28;20056;-77
2022/11/08 12:12:07;;;;;;;2.80;1.48;;;14.00;99.90;;;;;;5068507;28;20449;-78
2022/11/08 12:14:34;;;;;;;5.47;1.35;;;14.10;99.90;;;;;;5069147;28;20842;-77
2022/11/08 12:17:19;;;;;;;3.75;1.30;;;14.20;99.90;;;;;;5098617;28;20127;-77
2022/11/08 12:20:20;;;;;;;5.95;1.70;;;14.20;99.90;;;;;;5064237;28;20032;-78
2022/11/08 12:22:57;;;;;;;4.95;2.10;;;14.20;99.90;;;;;;5068645;28;20079;-77
2022/11/08 12:25:38;;;;;;;5.95;1.30;;;14.20;99.90;;;;;;5068431;28;20057;-77
2022/11/08 12:28:14;;;;;;;4.35;1.58;;;14.10;99.90;;;;;;5069492;28;20041;-77
2022/11/08 12:30:50;;;;;;;;;;;14.20;99.90;;;;;;5101807;28;20052;-77
2022/11/08 12:33:50;;;;;;;2.38;1.10;;;14.20;99.90;;;;;;5069297;28;19920;-77
2022/11/08 12:36:41;;;;;;;3.40;1.23;;;14.20;99.90;;;;;;5068670;28;20049;-77
2022/11/08 12:39:29;;;;;;;5.38;1.27;;;14.20;99.90;;;;;;5080657;28;20156;-77
2022/11/08 12:42:21;;;;;;;3.08;1.40;;;14.20;99.90;;;;;;5068704;28;20053;-77
2022/11/08 12:45:36;;;;;;;4.40;1.02;;;14.30;99.90;;;;;;5065827;28;20051;-77
2022/11/08 12:48:25;;;;;;;3.10;1.10;;;14.40;99.90;;;;;;4999297;28;20069;-77
2022/11/08 12:51:19;;;;;;;4.68;1.55;;;14.30;99.90;;;;;;5001853;28;20054;-77
2022/11/08 12:53:57;;;;;;;4.18;1.15;;;14.30;99.90;;;;;;5076719;28;20052;-77
2022/11/08 12:56:35;;;;;;;3.10;1.20;;;14.40;99.90;;;;;;5090732;28;20124;-76
2022/11/08 12:59:14;;;;;;;2.45;1.15;;;14.30;99.90;;;;;;5057582;28;20045;-78
2022/11/08 13:01:41;;;;;;;6.72;1.20;;;14.30;99.90;;;;;;5060504;28;20050;-79
2022/11/08 13:04:14;;;;;;;5.22;1.40;;;14.30;99.90;;;;;;5069080;28;20048;-77
2022/11/08 13:07:08;;;;;;;7.20;1.13;;;14.30;99.90;;;;;;5067017;28;20041;-78
2022/11/08 13:09:44;;;;;;;3.63;1.40;;;14.30;99.90;;;;;;5074847;28;20107;-79
2022/11/08 13:12:52;;;;;;;3.20;1.20;;;14.20;99.90;;;;;;5058927;28;20449;-78
2022/11/08 13:15:24;;;;;;;2.55;1.13;;;14.30;99.90;;;;;;5011663;28;20042;-78
2022/11/08 13:18:05;;;;;;;6.53;1.13;;;14.20;99.90;;;;;;5041052;28;20048;-77
2022/11/08 13:20:46;;;;;;;4.00;1.45;;;14.30;99.90;;;;;;5054121;28;20047;-78
2022/11/08 13:23:23;;;;;;;6.00;1.20;;;14.30;99.90;;;;;;5052466;28;20121;-78
2022/11/08 13:25:51;;;;;;;2.75;1.15;;;14.30;99.90;;;;;;5071420;28;20532;-78